sensor_id;sensor_type;location;lat;lon;timestamp;P1;durP1;ratioP1;P2;durP2;ratioP2
8177;SDS011;4130;48.740;9.132;2024-01-30T00:01:24;5.60;;;4.50;;
8177;SDS011;4130;48.740;9.132;2024-01-30T00:03:51;7.20;;;4.30;;
8177;SDS011;4130;48.740;9.132;2024-01-30T00:06:18;6.73;;;4.43;;
8177;SDS011;4130;48.740;9.132;2024-01-30T00:08:46;5.80;;;4.53;;
8177;SDS011;4130;48.740;9.132;2024-01-30T00:11:14;6.83;;;4.80;;
8177;SDS011;4130;48.740;9.132;2024-01-30T00:13:42;6.23;;;4.90;;
8177;SDS011;4130;48.740;9.132;2024-01-30T00:16:19;5.37;;;4.50;;
8177;SDS011;4130;48.740;9.132;2024-01-30T00:18:46;6.80;;;4.20;;
8177;SDS011;4130;48.740;9.132;2024-01-30T00:21:13;5.77;;;4.87;;
8177;SDS011;4130;48.740;9.132;2024-01-30T00:23:41;5.57;;;4.40;;
8177;SDS011;4130;48.740;9.132;2024-01-30T00:26:08;6.00;;;4.50;;
8177;SDS011;4130;48.740;9.132;2024-01-30T00:28:35;5.63;;;4.27;;
8177;SDS011;4130;48.740;9.132;2024-01-30T00:31:03;5.23;;;4.50;;
8177;SDS011;4130;48.740;9.132;2024-01-30T00:33:30;5.37;;;3.83;;
8177;SDS011;4130;48.740;9.132;2024-01-30T00:35:57;7.53;;;4.70;;
8177;SDS011;4130;48.740;9.132;2024-01-30T00:38:24;6.80;;;4.80;;
8177;SDS011;4130;48.740;9.132;2024-01-30T00:40:51;4.57;;;3.90;;
8177;SDS011;4130;48.740;9.132;2024-01-30T00:43:18;6.60;;;4.60;;
8177;SDS011;4130;48.740;9.132;2024-01-30T00:45:46;8.10;;;4.60;;
8177;SDS011;4130;48.740;9.132;2024-01-30T00:48:14;4.90;;;4.40;;
8177;SDS011;4130;48.740;9.132;2024-01-30T00:50:41;5.00;;;4.30;;
8177;SDS011;4130;48.740;9.132;2024-01-30T00:53:08;4.90;;;4.30;;
8177;SDS011;4130;48.740;9.132;2024-01-30T00:55:36;7.40;;;4.10;;
8177;SDS011;4130;48.740;9.132;2024-01-30T00:58:03;4.90;;;4.33;;
8177;SDS011;4130;48.740;9.132;2024-01-30T01:00:30;5.73;;;4.33;;
8177;SDS011;4130;48.740;9.132;2024-01-30T01:02:58;5.70;;;5.10;;
8177;SDS011;4130;48.740;9.132;2024-01-30T01:05:26;7.03;;;4.47;;
8177;SDS011;4130;48.740;9.132;2024-01-30T01:07:53;5.23;;;4.50;;
8177;SDS011;4130;48.740;9.132;2024-01-30T01:10:20;7.40;;;4.37;;
8177;SDS011;4130;48.740;9.132;2024-01-30T01:12:47;5.77;;;4.53;;
8177;SDS011;4130;48.740;9.132;2024-01-30T01:15:15;4.17;;;3.77;;
8177;SDS011;4130;48.740;9.132;2024-01-30T01:17:42;7.63;;;4.77;;
8177;SDS011;4130;48.740;9.132;2024-01-30T01:20:09;4.87;;;4.07;;
8177;SDS011;4130;48.740;9.132;2024-01-30T01:22:38;8.60;;;4.97;;
8177;SDS011;4130;48.740;9.132;2024-01-30T01:25:06;5.17;;;4.30;;
8177;SDS011;4130;48.740;9.132;2024-01-30T01:27:33;5.10;;;4.40;;
8177;SDS011;4130;48.740;9.132;2024-01-30T01:30:06;5.60;;;4.40;;
8177;SDS011;4130;48.740;9.132;2024-01-30T01:32:34;4.80;;;3.90;;
8177;SDS011;4130;48.740;9.132;2024-01-30T01:35:02;6.00;;;4.47;;
8177;SDS011;4130;48.740;9.132;2024-01-30T01:37:30;6.17;;;4.70;;
8177;SDS011;4130;48.740;9.132;2024-01-30T01:39:59;5.13;;;4.40;;
8177;SDS011;4130;48.740;9.132;2024-01-30T01:42:26;5.43;;;4.40;;
8177;SDS011;4130;48.740;9.132;2024-01-30T01:44:53;6.57;;;4.30;;
8177;SDS011;4130;48.740;9.132;2024-01-30T01:47:20;4.47;;;3.80;;
8177;SDS011;4130;48.740;9.132;2024-01-30T01:49:47;4.87;;;4.13;;
8177;SDS011;4130;48.740;9.132;2024-01-30T01:52:14;5.20;;;4.13;;
8177;SDS011;4130;48.740;9.132;2024-01-30T01:54:41;4.63;;;3.93;;
8177;SDS011;4130;48.740;9.132;2024-01-30T01:57:10;5.50;;;4.97;;
8177;SDS011;4130;48.740;9.132;2024-01-30T01:59:37;7.43;;;4.77;;
8177;SDS011;4130;48.740;9.132;2024-01-30T02:02:04;8.33;;;4.67;;
8177;SDS011;4130;48.740;9.132;2024-01-30T02:04:35;8.13;;;4.63;;
8177;SDS011;4130;48.740;9.132;2024-01-30T02:07:02;5.07;;;4.40;;
8177;SDS011;4130;48.740;9.132;2024-01-30T02:09:29;6.27;;;4.60;;
8177;SDS011;4130;48.740;9.132;2024-01-30T02:11:57;6.40;;;4.43;;
8177;SDS011;4130;48.740;9.132;2024-01-30T02:14:25;4.87;;;4.07;;
8177;SDS011;4130;48.740;9.132;2024-01-30T02:16:52;6.73;;;4.30;;
8177;SDS011;4130;48.740;9.132;2024-01-30T02:19:19;7.73;;;4.73;;
8177;SDS011;4130;48.740;9.132;2024-01-30T02:21:48;4.30;;;3.90;;
8177;SDS011;4130;48.740;9.132;2024-01-30T02:24:16;5.93;;;4.30;;
8177;SDS011;4130;48.740;9.132;2024-01-30T02:26:43;8.37;;;4.53;;
8177;SDS011;4130;48.740;9.132;2024-01-30T02:29:10;6.83;;;4.20;;
8177;SDS011;4130;48.740;9.132;2024-01-30T02:31:38;5.03;;;4.07;;
8177;SDS011;4130;48.740;9.132;2024-01-30T02:34:05;4.63;;;4.07;;
8177;SDS011;4130;48.740;9.132;2024-01-30T02:36:32;6.20;;;4.10;;
8177;SDS011;4130;48.740;9.132;2024-01-30T02:39:00;6.60;;;4.63;;
8177;SDS011;4130;48.740;9.132;2024-01-30T02:41:27;4.77;;;4.30;;
8177;SDS011;4130;48.740;9.132;2024-01-30T02:43:54;5.43;;;4.60;;
8177;SDS011;4130;48.740;9.132;2024-01-30T02:46:23;6.33;;;4.83;;
8177;SDS011;4130;48.740;9.132;2024-01-30T02:48:50;8.60;;;4.53;;
8177;SDS011;4130;48.740;9.132;2024-01-30T02:51:17;6.27;;;4.40;;
8177;SDS011;4130;48.740;9.132;2024-01-30T02:53:44;6.00;;;4.47;;
8177;SDS011;4130;48.740;9.132;2024-01-30T02:56:12;6.40;;;4.37;;
8177;SDS011;4130;48.740;9.132;2024-01-30T02:58:39;5.27;;;4.17;;
8177;SDS011;4130;48.740;9.132;2024-01-30T03:01:07;7.57;;;4.80;;
8177;SDS011;4130;48.740;9.132;2024-01-30T03:03:35;6.30;;;4.90;;
8177;SDS011;4130;48.740;9.132;2024-01-30T03:06:02;7.80;;;4.93;;
8177;SDS011;4130;48.740;9.132;2024-01-30T03:08:36;6.60;;;4.60;;
8177;SDS011;4130;48.740;9.132;2024-01-30T03:11:03;7.00;;;4.53;;
8177;SDS011;4130;48.740;9.132;2024-01-30T03:13:31;9.50;;;5.83;;
8177;SDS011;4130;48.740;9.132;2024-01-30T03:16:01;8.23;;;4.97;;
8177;SDS011;4130;48.740;9.132;2024-01-30T03:18:28;5.73;;;5.00;;
8177;SDS011;4130;48.740;9.132;2024-01-30T03:20:57;7.23;;;5.40;;
8177;SDS011;4130;48.740;9.132;2024-01-30T03:23:24;11.07;;;5.17;;
8177;SDS011;4130;48.740;9.132;2024-01-30T03:25:51;8.00;;;5.10;;
8177;SDS011;4130;48.740;9.132;2024-01-30T03:28:18;7.27;;;4.93;;
8177;SDS011;4130;48.740;9.132;2024-01-30T03:30:46;10.30;;;5.17;;
8177;SDS011;4130;48.740;9.132;2024-01-30T03:33:16;14.90;;;5.10;;
8177;SDS011;4130;48.740;9.132;2024-01-30T03:35:43;6.03;;;4.73;;
8177;SDS011;4130;48.740;9.132;2024-01-30T03:38:10;8.23;;;5.00;;
8177;SDS011;4130;48.740;9.132;2024-01-30T03:40:37;5.83;;;5.23;;
8177;SDS011;4130;48.740;9.132;2024-01-30T03:43:04;8.47;;;5.10;;
8177;SDS011;4130;48.740;9.132;2024-01-30T03:45:34;7.13;;;5.07;;
8177;SDS011;4130;48.740;9.132;2024-01-30T03:48:03;7.90;;;5.43;;
8177;SDS011;4130;48.740;9.132;2024-01-30T03:50:30;8.53;;;5.57;;
8177;SDS011;4130;48.740;9.132;2024-01-30T03:52:57;6.40;;;5.03;;
8177;SDS011;4130;48.740;9.132;2024-01-30T03:55:25;7.07;;;4.87;;
8177;SDS011;4130;48.740;9.132;2024-01-30T03:57:52;7.77;;;5.33;;
8177;SDS011;4130;48.740;9.132;2024-01-30T04:00:19;9.03;;;5.50;;
8177;SDS011;4130;48.740;9.132;2024-01-30T04:02:46;7.77;;;5.30;;
8177;SDS011;4130;48.740;9.132;2024-01-30T04:05:15;8.03;;;6.07;;
8177;SDS011;4130;48.740;9.132;2024-01-30T04:07:42;8.23;;;5.03;;
8177;SDS011;4130;48.740;9.132;2024-01-30T04:10:09;7.67;;;5.80;;
8177;SDS011;4130;48.740;9.132;2024-01-30T04:12:36;7.67;;;5.43;;
8177;SDS011;4130;48.740;9.132;2024-01-30T04:15:04;8.10;;;5.63;;
8177;SDS011;4130;48.740;9.132;2024-01-30T04:17:31;6.60;;;5.17;;
8177;SDS011;4130;48.740;9.132;2024-01-30T04:19:58;7.63;;;5.50;;
8177;SDS011;4130;48.740;9.132;2024-01-30T04:22:26;7.03;;;5.57;;
8177;SDS011;4130;48.740;9.132;2024-01-30T04:24:54;8.63;;;5.43;;
8177;SDS011;4130;48.740;9.132;2024-01-30T04:27:21;7.50;;;5.77;;
8177;SDS011;4130;48.740;9.132;2024-01-30T04:29:47;8.43;;;5.83;;
8177;SDS011;4130;48.740;9.132;2024-01-30T04:32:15;8.23;;;5.87;;
8177;SDS011;4130;48.740;9.132;2024-01-30T04:34:42;6.73;;;5.40;;
8177;SDS011;4130;48.740;9.132;2024-01-30T04:37:10;5.93;;;5.13;;
8177;SDS011;4130;48.740;9.132;2024-01-30T04:39:38;7.53;;;5.93;;
8177;SDS011;4130;48.740;9.132;2024-01-30T04:42:06;7.63;;;5.53;;
8177;SDS011;4130;48.740;9.132;2024-01-30T04:44:33;7.60;;;6.10;;
8177;SDS011;4130;48.740;9.132;2024-01-30T04:47:00;9.67;;;5.97;;
8177;SDS011;4130;48.740;9.132;2024-01-30T04:49:33;6.30;;;5.53;;
8177;SDS011;4130;48.740;9.132;2024-01-30T04:52:00;7.80;;;5.63;;
8177;SDS011;4130;48.740;9.132;2024-01-30T04:54:27;9.63;;;5.67;;
8177;SDS011;4130;48.740;9.132;2024-01-30T04:56:55;10.13;;;5.93;;
8177;SDS011;4130;48.740;9.132;2024-01-30T04:59:22;8.10;;;5.97;;
8177;SDS011;4130;48.740;9.132;2024-01-30T05:01:50;8.63;;;5.50;;
8177;SDS011;4130;48.740;9.132;2024-01-30T05:04:17;6.90;;;5.50;;
8177;SDS011;4130;48.740;9.132;2024-01-30T05:06:44;8.80;;;5.80;;
8177;SDS011;4130;48.740;9.132;2024-01-30T05:09:12;7.77;;;5.50;;
8177;SDS011;4130;48.740;9.132;2024-01-30T05:11:39;7.17;;;5.40;;
8177;SDS011;4130;48.740;9.132;2024-01-30T05:14:07;7.90;;;6.00;;
8177;SDS011;4130;48.740;9.132;2024-01-30T05:16:36;7.73;;;5.77;;
8177;SDS011;4130;48.740;9.132;2024-01-30T05:19:03;8.40;;;6.53;;
8177;SDS011;4130;48.740;9.132;2024-01-30T05:21:30;10.10;;;6.60;;
8177;SDS011;4130;48.740;9.132;2024-01-30T05:23:57;11.23;;;6.77;;
8177;SDS011;4130;48.740;9.132;2024-01-30T05:26:24;9.47;;;6.43;;
8177;SDS011;4130;48.740;9.132;2024-01-30T05:28:52;11.13;;;6.43;;
8177;SDS011;4130;48.740;9.132;2024-01-30T05:31:22;8.50;;;6.50;;
8177;SDS011;4130;48.740;9.132;2024-01-30T05:33:51;10.07;;;6.90;;
8177;SDS011;4130;48.740;9.132;2024-01-30T05:36:18;8.33;;;5.80;;
8177;SDS011;4130;48.740;9.132;2024-01-30T05:38:45;10.67;;;6.50;;
8177;SDS011;4130;48.740;9.132;2024-01-30T05:41:13;10.07;;;6.67;;
8177;SDS011;4130;48.740;9.132;2024-01-30T05:43:40;7.53;;;5.67;;
8177;SDS011;4130;48.740;9.132;2024-01-30T05:46:09;9.23;;;6.00;;
8177;SDS011;4130;48.740;9.132;2024-01-30T05:48:37;7.47;;;6.33;;
8177;SDS011;4130;48.740;9.132;2024-01-30T05:51:04;9.27;;;6.53;;
8177;SDS011;4130;48.740;9.132;2024-01-30T05:53:33;9.27;;;6.33;;
8177;SDS011;4130;48.740;9.132;2024-01-30T05:56:01;9.23;;;6.00;;
8177;SDS011;4130;48.740;9.132;2024-01-30T05:58:28;9.57;;;6.17;;
8177;SDS011;4130;48.740;9.132;2024-01-30T06:00:56;9.93;;;6.30;;
8177;SDS011;4130;48.740;9.132;2024-01-30T06:03:23;9.20;;;6.27;;
8177;SDS011;4130;48.740;9.132;2024-01-30T06:05:52;8.80;;;6.27;;
8177;SDS011;4130;48.740;9.132;2024-01-30T06:08:19;8.73;;;6.67;;
8177;SDS011;4130;48.740;9.132;2024-01-30T06:10:45;9.63;;;5.90;;
8177;SDS011;4130;48.740;9.132;2024-01-30T06:13:13;7.60;;;5.90;;
8177;SDS011;4130;48.740;9.132;2024-01-30T06:15:40;10.30;;;6.17;;
8177;SDS011;4130;48.740;9.132;2024-01-30T06:18:07;8.13;;;6.00;;
8177;SDS011;4130;48.740;9.132;2024-01-30T06:20:34;10.10;;;6.40;;
8177;SDS011;4130;48.740;9.132;2024-01-30T06:23:03;9.73;;;6.40;;
8177;SDS011;4130;48.740;9.132;2024-01-30T06:25:30;10.00;;;6.50;;
8177;SDS011;4130;48.740;9.132;2024-01-30T06:27:57;10.03;;;6.80;;
8177;SDS011;4130;48.740;9.132;2024-01-30T06:30:24;8.40;;;6.07;;
8177;SDS011;4130;48.740;9.132;2024-01-30T06:32:51;8.87;;;6.30;;
8177;SDS011;4130;48.740;9.132;2024-01-30T06:35:18;10.67;;;6.27;;
8177;SDS011;4130;48.740;9.132;2024-01-30T06:37:47;10.07;;;6.53;;
8177;SDS011;4130;48.740;9.132;2024-01-30T06:40:15;7.60;;;5.53;;
8177;SDS011;4130;48.740;9.132;2024-01-30T06:42:42;9.10;;;6.10;;
8177;SDS011;4130;48.740;9.132;2024-01-30T06:45:09;10.87;;;6.80;;
8177;SDS011;4130;48.740;9.132;2024-01-30T06:47:36;8.20;;;6.37;;
8177;SDS011;4130;48.740;9.132;2024-01-30T06:50:03;7.40;;;5.83;;
8177;SDS011;4130;48.740;9.132;2024-01-30T06:52:31;9.00;;;6.43;;
8177;SDS011;4130;48.740;9.132;2024-01-30T06:54:59;9.43;;;6.93;;
8177;SDS011;4130;48.740;9.132;2024-01-30T06:57:28;9.87;;;7.27;;
8177;SDS011;4130;48.740;9.132;2024-01-30T06:59:55;13.23;;;7.53;;
8177;SDS011;4130;48.740;9.132;2024-01-30T07:02:22;11.30;;;6.47;;
8177;SDS011;4130;48.740;9.132;2024-01-30T07:04:50;9.00;;;6.70;;
8177;SDS011;4130;48.740;9.132;2024-01-30T07:07:17;10.50;;;6.83;;
8177;SDS011;4130;48.740;9.132;2024-01-30T07:09:43;13.27;;;6.80;;
8177;SDS011;4130;48.740;9.132;2024-01-30T07:12:11;11.70;;;7.10;;
8177;SDS011;4130;48.740;9.132;2024-01-30T07:14:39;9.87;;;7.03;;
8177;SDS011;4130;48.740;9.132;2024-01-30T07:17:06;9.77;;;6.90;;
8177;SDS011;4130;48.740;9.132;2024-01-30T07:19:33;12.30;;;6.83;;
8177;SDS011;4130;48.740;9.132;2024-01-30T07:22:00;12.37;;;7.50;;
8177;SDS011;4130;48.740;9.132;2024-01-30T07:24:27;9.43;;;6.90;;
8177;SDS011;4130;48.740;9.132;2024-01-30T07:26:54;11.93;;;6.90;;
8177;SDS011;4130;48.740;9.132;2024-01-30T07:29:23;9.20;;;6.77;;
8177;SDS011;4130;48.740;9.132;2024-01-30T07:31:51;12.20;;;6.70;;
8177;SDS011;4130;48.740;9.132;2024-01-30T07:34:18;11.37;;;6.43;;
8177;SDS011;4130;48.740;9.132;2024-01-30T07:36:45;9.40;;;6.23;;
8177;SDS011;4130;48.740;9.132;2024-01-30T07:39:12;9.93;;;6.20;;
8177;SDS011;4130;48.740;9.132;2024-01-30T07:41:39;7.47;;;6.00;;
8177;SDS011;4130;48.740;9.132;2024-01-30T07:44:06;7.53;;;5.90;;
8177;SDS011;4130;48.740;9.132;2024-01-30T07:46:33;12.10;;;6.70;;
8177;SDS011;4130;48.740;9.132;2024-01-30T07:49:02;8.33;;;6.07;;
8177;SDS011;4130;48.740;9.132;2024-01-30T07:51:29;9.23;;;6.50;;
8177;SDS011;4130;48.740;9.132;2024-01-30T07:53:58;11.83;;;7.90;;
8177;SDS011;4130;48.740;9.132;2024-01-30T07:56:25;10.90;;;7.97;;
8177;SDS011;4130;48.740;9.132;2024-01-30T07:58:52;8.87;;;7.10;;
8177;SDS011;4130;48.740;9.132;2024-01-30T08:01:19;14.07;;;8.70;;
8177;SDS011;4130;48.740;9.132;2024-01-30T08:03:46;12.90;;;7.47;;
8177;SDS011;4130;48.740;9.132;2024-01-30T08:06:14;12.50;;;7.83;;
8177;SDS011;4130;48.740;9.132;2024-01-30T08:08:41;12.77;;;8.10;;
8177;SDS011;4130;48.740;9.132;2024-01-30T08:11:08;13.43;;;7.83;;
8177;SDS011;4130;48.740;9.132;2024-01-30T08:13:35;16.27;;;8.07;;
8177;SDS011;4130;48.740;9.132;2024-01-30T08:16:02;16.53;;;7.60;;
8177;SDS011;4130;48.740;9.132;2024-01-30T08:18:29;11.83;;;7.57;;
8177;SDS011;4130;48.740;9.132;2024-01-30T08:20:56;14.07;;;7.77;;
8177;SDS011;4130;48.740;9.132;2024-01-30T08:23:25;10.10;;;6.93;;
8177;SDS011;4130;48.740;9.132;2024-01-30T08:25:52;11.03;;;7.37;;
8177;SDS011;4130;48.740;9.132;2024-01-30T08:28:19;10.37;;;7.40;;
8177;SDS011;4130;48.740;9.132;2024-01-30T08:30:46;8.57;;;6.47;;
8177;SDS011;4130;48.740;9.132;2024-01-30T08:33:13;12.33;;;7.00;;
8177;SDS011;4130;48.740;9.132;2024-01-30T08:35:41;9.80;;;6.90;;
8177;SDS011;4130;48.740;9.132;2024-01-30T08:38:08;10.50;;;7.20;;
8177;SDS011;4130;48.740;9.132;2024-01-30T08:40:39;11.17;;;6.43;;
8177;SDS011;4130;48.740;9.132;2024-01-30T08:43:06;12.47;;;7.47;;
8177;SDS011;4130;48.740;9.132;2024-01-30T08:45:34;10.30;;;7.33;;
8177;SDS011;4130;48.740;9.132;2024-01-30T08:48:01;13.17;;;7.53;;
8177;SDS011;4130;48.740;9.132;2024-01-30T08:50:29;11.73;;;7.50;;
8177;SDS011;4130;48.740;9.132;2024-01-30T08:52:56;12.30;;;7.30;;
8177;SDS011;4130;48.740;9.132;2024-01-30T08:55:23;10.03;;;7.03;;
8177;SDS011;4130;48.740;9.132;2024-01-30T08:57:51;14.10;;;6.47;;
8177;SDS011;4130;48.740;9.132;2024-01-30T09:00:18;8.47;;;6.47;;
8177;SDS011;4130;48.740;9.132;2024-01-30T09:02:46;9.27;;;7.03;;
8177;SDS011;4130;48.740;9.132;2024-01-30T09:05:13;10.57;;;6.50;;
8177;SDS011;4130;48.740;9.132;2024-01-30T09:07:42;8.53;;;6.20;;
8177;SDS011;4130;48.740;9.132;2024-01-30T09:10:11;7.40;;;5.70;;
8177;SDS011;4130;48.740;9.132;2024-01-30T09:12:38;8.07;;;5.80;;
8177;SDS011;4130;48.740;9.132;2024-01-30T09:15:07;8.10;;;5.33;;
8177;SDS011;4130;48.740;9.132;2024-01-30T09:17:34;8.30;;;5.57;;
8177;SDS011;4130;48.740;9.132;2024-01-30T09:20:01;8.77;;;5.33;;
8177;SDS011;4130;48.740;9.132;2024-01-30T09:22:28;9.77;;;5.17;;
8177;SDS011;4130;48.740;9.132;2024-01-30T09:24:56;9.43;;;5.83;;
8177;SDS011;4130;48.740;9.132;2024-01-30T09:27:23;11.50;;;6.60;;
8177;SDS011;4130;48.740;9.132;2024-01-30T09:29:51;9.67;;;6.90;;
8177;SDS011;4130;48.740;9.132;2024-01-30T09:32:19;8.83;;;5.97;;
8177;SDS011;4130;48.740;9.132;2024-01-30T09:34:46;8.57;;;6.27;;
8177;SDS011;4130;48.740;9.132;2024-01-30T09:37:13;7.50;;;5.70;;
8177;SDS011;4130;48.740;9.132;2024-01-30T09:39:43;9.07;;;5.80;;
8177;SDS011;4130;48.740;9.132;2024-01-30T09:42:11;7.80;;;6.20;;
8177;SDS011;4130;48.740;9.132;2024-01-30T09:44:44;9.87;;;5.87;;
8177;SDS011;4130;48.740;9.132;2024-01-30T09:47:16;6.90;;;5.47;;
8177;SDS011;4130;48.740;9.132;2024-01-30T09:49:45;9.63;;;5.50;;
8177;SDS011;4130;48.740;9.132;2024-01-30T09:52:14;6.57;;;5.17;;
8177;SDS011;4130;48.740;9.132;2024-01-30T09:54:41;10.77;;;5.80;;
8177;SDS011;4130;48.740;9.132;2024-01-30T09:57:09;5.80;;;4.33;;
8177;SDS011;4130;48.740;9.132;2024-01-30T09:59:38;7.77;;;4.90;;
8177;SDS011;4130;48.740;9.132;2024-01-30T10:02:05;9.80;;;5.17;;
8177;SDS011;4130;48.740;9.132;2024-01-30T10:04:33;6.67;;;5.17;;
8177;SDS011;4130;48.740;9.132;2024-01-30T10:07:01;7.43;;;4.60;;
8177;SDS011;4130;48.740;9.132;2024-01-30T10:09:31;8.50;;;4.83;;
8177;SDS011;4130;48.740;9.132;2024-01-30T10:11:57;7.23;;;4.87;;
8177;SDS011;4130;48.740;9.132;2024-01-30T10:14:25;12.80;;;4.90;;
8177;SDS011;4130;48.740;9.132;2024-01-30T10:16:52;10.77;;;5.10;;
8177;SDS011;4130;48.740;9.132;2024-01-30T10:19:19;8.07;;;4.80;;
8177;SDS011;4130;48.740;9.132;2024-01-30T10:21:46;8.67;;;5.00;;
8177;SDS011;4130;48.740;9.132;2024-01-30T10:24:14;12.37;;;4.93;;
8177;SDS011;4130;48.740;9.132;2024-01-30T10:26:43;12.27;;;4.73;;
8177;SDS011;4130;48.740;9.132;2024-01-30T10:29:10;9.50;;;4.57;;
8177;SDS011;4130;48.740;9.132;2024-01-30T10:31:37;7.00;;;4.83;;
8177;SDS011;4130;48.740;9.132;2024-01-30T10:34:04;3.37;;;2.90;;
8177;SDS011;4130;48.740;9.132;2024-01-30T10:36:31;4.50;;;2.80;;
8177;SDS011;4130;48.740;9.132;2024-01-30T10:39:06;7.37;;;2.80;;
8177;SDS011;4130;48.740;9.132;2024-01-30T10:41:35;3.13;;;2.50;;
8177;SDS011;4130;48.740;9.132;2024-01-30T10:44:10;2.67;;;2.00;;
8177;SDS011;4130;48.740;9.132;2024-01-30T10:46:38;3.50;;;2.03;;
8177;SDS011;4130;48.740;9.132;2024-01-30T10:52:27;4.03;;;2.07;;
8177;SDS011;4130;48.740;9.132;2024-01-30T10:55:07;4.47;;;2.20;;
8177;SDS011;4130;48.740;9.132;2024-01-30T10:57:36;8.13;;;3.67;;
8177;SDS011;4130;48.740;9.132;2024-01-30T11:00:04;4.40;;;2.77;;
8177;SDS011;4130;48.740;9.132;2024-01-30T11:02:35;5.40;;;2.80;;
8177;SDS011;4130;48.740;9.132;2024-01-30T11:05:04;3.33;;;2.20;;
8177;SDS011;4130;48.740;9.132;2024-01-30T11:07:31;6.93;;;1.90;;
8177;SDS011;4130;48.740;9.132;2024-01-30T11:10:02;3.87;;;1.90;;
8177;SDS011;4130;48.740;9.132;2024-01-30T11:12:31;3.83;;;2.03;;
8177;SDS011;4130;48.740;9.132;2024-01-30T11:15:04;1.87;;;1.60;;
8177;SDS011;4130;48.740;9.132;2024-01-30T11:17:40;3.80;;;2.10;;
8177;SDS011;4130;48.740;9.132;2024-01-30T11:20:09;2.67;;;1.90;;
8177;SDS011;4130;48.740;9.132;2024-01-30T11:22:39;3.80;;;2.20;;
8177;SDS011;4130;48.740;9.132;2024-01-30T11:25:10;3.13;;;2.00;;
8177;SDS011;4130;48.740;9.132;2024-01-30T11:27:38;3.33;;;1.90;;
8177;SDS011;4130;48.740;9.132;2024-01-30T11:30:08;2.50;;;1.97;;
8177;SDS011;4130;48.740;9.132;2024-01-30T11:32:35;2.20;;;1.80;;
8177;SDS011;4130;48.740;9.132;2024-01-30T11:35:03;3.03;;;2.10;;
8177;SDS011;4130;48.740;9.132;2024-01-30T11:37:31;2.50;;;1.80;;
8177;SDS011;4130;48.740;9.132;2024-01-30T11:40:02;5.03;;;2.10;;
8177;SDS011;4130;48.740;9.132;2024-01-30T11:42:31;3.80;;;1.97;;
8177;SDS011;4130;48.740;9.132;2024-01-30T11:44:59;2.63;;;1.90;;
8177;SDS011;4130;48.740;9.132;2024-01-30T11:47:29;2.63;;;1.73;;
8177;SDS011;4130;48.740;9.132;2024-01-30T11:52:28;4.60;;;2.00;;
8177;SDS011;4130;48.740;9.132;2024-01-30T11:54:55;4.03;;;2.03;;
8177;SDS011;4130;48.740;9.132;2024-01-30T11:57:22;4.37;;;2.50;;
8177;SDS011;4130;48.740;9.132;2024-01-30T11:59:49;3.80;;;2.10;;
8177;SDS011;4130;48.740;9.132;2024-01-30T12:02:16;3.20;;;1.80;;
8177;SDS011;4130;48.740;9.132;2024-01-30T12:04:45;5.53;;;2.20;;
8177;SDS011;4130;48.740;9.132;2024-01-30T12:07:13;3.40;;;1.90;;
8177;SDS011;4130;48.740;9.132;2024-01-30T12:09:41;27.90;;;5.63;;
8177;SDS011;4130;48.740;9.132;2024-01-30T12:12:08;13.27;;;2.67;;
8177;SDS011;4130;48.740;9.132;2024-01-30T12:14:37;1.97;;;1.80;;
8177;SDS011;4130;48.740;9.132;2024-01-30T12:17:05;3.97;;;2.13;;
8177;SDS011;4130;48.740;9.132;2024-01-30T12:19:33;3.13;;;1.90;;
8177;SDS011;4130;48.740;9.132;2024-01-30T12:22:02;2.80;;;2.00;;
8177;SDS011;4130;48.740;9.132;2024-01-30T12:24:29;2.23;;;1.80;;
8177;SDS011;4130;48.740;9.132;2024-01-30T12:26:57;4.43;;;2.50;;
8177;SDS011;4130;48.740;9.132;2024-01-30T12:29:25;2.53;;;2.20;;
8177;SDS011;4130;48.740;9.132;2024-01-30T12:31:52;6.43;;;2.10;;
8177;SDS011;4130;48.740;9.132;2024-01-30T12:34:20;2.20;;;1.80;;
8177;SDS011;4130;48.740;9.132;2024-01-30T12:36:47;3.35;;;2.10;;
8177;SDS011;4130;48.740;9.132;2024-01-30T12:39:16;2.30;;;1.90;;
8177;SDS011;4130;48.740;9.132;2024-01-30T12:41:43;3.17;;;1.97;;
8177;SDS011;4130;48.740;9.132;2024-01-30T12:44:10;3.40;;;1.90;;
8177;SDS011;4130;48.740;9.132;2024-01-30T12:46:39;2.30;;;2.10;;
8177;SDS011;4130;48.740;9.132;2024-01-30T12:49:06;4.13;;;2.40;;
8177;SDS011;4130;48.740;9.132;2024-01-30T12:51:33;4.60;;;2.97;;
8177;SDS011;4130;48.740;9.132;2024-01-30T12:54:04;2.90;;;2.33;;
8177;SDS011;4130;48.740;9.132;2024-01-30T12:56:33;2.77;;;1.80;;
8177;SDS011;4130;48.740;9.132;2024-01-30T12:59:00;3.63;;;2.47;;
8177;SDS011;4130;48.740;9.132;2024-01-30T13:01:27;2.37;;;2.00;;
8177;SDS011;4130;48.740;9.132;2024-01-30T13:03:54;2.27;;;1.90;;
8177;SDS011;4130;48.740;9.132;2024-01-30T13:06:23;1.90;;;1.80;;
8177;SDS011;4130;48.740;9.132;2024-01-30T13:08:51;2.27;;;1.87;;
8177;SDS011;4130;48.740;9.132;2024-01-30T13:11:18;2.90;;;2.00;;
8177;SDS011;4130;48.740;9.132;2024-01-30T13:13:47;2.10;;;1.90;;
8177;SDS011;4130;48.740;9.132;2024-01-30T13:16:14;3.33;;;2.10;;
8177;SDS011;4130;48.740;9.132;2024-01-30T13:18:41;4.17;;;2.63;;
8177;SDS011;4130;48.740;9.132;2024-01-30T13:21:09;1.97;;;1.77;;
8177;SDS011;4130;48.740;9.132;2024-01-30T13:23:38;5.67;;;2.17;;
8177;SDS011;4130;48.740;9.132;2024-01-30T13:26:05;8.83;;;2.73;;
8177;SDS011;4130;48.740;9.132;2024-01-30T13:28:32;12.20;;;3.27;;
8177;SDS011;4130;48.740;9.132;2024-01-30T13:31:01;3.40;;;2.07;;
8177;SDS011;4130;48.740;9.132;2024-01-30T13:33:28;3.07;;;2.03;;
8177;SDS011;4130;48.740;9.132;2024-01-30T13:35:55;4.07;;;2.30;;
8177;SDS011;4130;48.740;9.132;2024-01-30T13:38:23;7.17;;;2.23;;
8177;SDS011;4130;48.740;9.132;2024-01-30T13:40:49;3.83;;;2.17;;
8177;SDS011;4130;48.740;9.132;2024-01-30T13:43:17;4.23;;;1.90;;
8177;SDS011;4130;48.740;9.132;2024-01-30T13:45:44;3.23;;;2.00;;
8177;SDS011;4130;48.740;9.132;2024-01-30T13:48:12;3.17;;;2.17;;
8177;SDS011;4130;48.740;9.132;2024-01-30T13:50:39;3.80;;;2.00;;
8177;SDS011;4130;48.740;9.132;2024-01-30T13:53:07;4.23;;;2.00;;
8177;SDS011;4130;48.740;9.132;2024-01-30T13:55:34;4.37;;;2.00;;
8177;SDS011;4130;48.740;9.132;2024-01-30T13:58:04;2.83;;;2.13;;
8177;SDS011;4130;48.740;9.132;2024-01-30T14:00:32;3.50;;;2.23;;
8177;SDS011;4130;48.740;9.132;2024-01-30T14:03:00;8.63;;;2.33;;
8177;SDS011;4130;48.740;9.132;2024-01-30T14:05:28;3.43;;;2.10;;
8177;SDS011;4130;48.740;9.132;2024-01-30T14:07:55;3.40;;;2.08;;
8177;SDS011;4130;48.740;9.132;2024-01-30T14:10:24;2.97;;;1.80;;
8177;SDS011;4130;48.740;9.132;2024-01-30T14:12:51;4.13;;;2.17;;
8177;SDS011;4130;48.740;9.132;2024-01-30T14:15:19;3.15;;;1.85;;
8177;SDS011;4130;48.740;9.132;2024-01-30T14:17:47;3.73;;;2.43;;
8177;SDS011;4130;48.740;9.132;2024-01-30T14:20:15;3.07;;;2.63;;
8177;SDS011;4130;48.740;9.132;2024-01-30T14:22:45;3.40;;;2.30;;
8177;SDS011;4130;48.740;9.132;2024-01-30T14:25:12;5.03;;;2.40;;
8177;SDS011;4130;48.740;9.132;2024-01-30T14:27:41;4.03;;;2.10;;
8177;SDS011;4130;48.740;9.132;2024-01-30T14:30:09;3.17;;;2.20;;
8177;SDS011;4130;48.740;9.132;2024-01-30T14:32:37;3.13;;;2.20;;
8177;SDS011;4130;48.740;9.132;2024-01-30T14:35:06;4.37;;;1.90;;
8177;SDS011;4130;48.740;9.132;2024-01-30T14:37:34;3.13;;;2.27;;
8177;SDS011;4130;48.740;9.132;2024-01-30T14:40:03;8.07;;;3.10;;
8177;SDS011;4130;48.740;9.132;2024-01-30T14:42:32;9.37;;;3.93;;
8177;SDS011;4130;48.740;9.132;2024-01-30T14:45:00;4.63;;;2.57;;
8177;SDS011;4130;48.740;9.132;2024-01-30T14:47:27;4.57;;;2.77;;
8177;SDS011;4130;48.740;9.132;2024-01-30T14:49:55;9.17;;;4.03;;
8177;SDS011;4130;48.740;9.132;2024-01-30T14:52:22;11.83;;;5.10;;
8177;SDS011;4130;48.740;9.132;2024-01-30T14:54:50;9.93;;;5.20;;
8177;SDS011;4130;48.740;9.132;2024-01-30T14:57:19;9.70;;;4.93;;
8177;SDS011;4130;48.740;9.132;2024-01-30T14:59:46;11.87;;;5.40;;
8177;SDS011;4130;48.740;9.132;2024-01-30T15:02:13;9.73;;;5.50;;
8177;SDS011;4130;48.740;9.132;2024-01-30T15:04:40;12.13;;;5.33;;
8177;SDS011;4130;48.740;9.132;2024-01-30T15:07:08;7.67;;;5.30;;
8177;SDS011;4130;48.740;9.132;2024-01-30T15:09:35;7.20;;;5.17;;
8177;SDS011;4130;48.740;9.132;2024-01-30T15:12:02;10.37;;;5.23;;
8177;SDS011;4130;48.740;9.132;2024-01-30T15:14:31;17.57;;;6.63;;
8177;SDS011;4130;48.740;9.132;2024-01-30T15:16:59;11.30;;;5.60;;
8177;SDS011;4130;48.740;9.132;2024-01-30T15:19:26;9.57;;;6.10;;
8177;SDS011;4130;48.740;9.132;2024-01-30T15:21:53;12.33;;;6.40;;